Time;durP1;ratioP1;P1;durP2;ratioP2;P2;SDS_P1;SDS_P2;PMS_P1;PMS_P2;Temp;Humidity;BMP_temperature;BMP_pressure;BME280_temperature;BME280_humidity;BME280_pressure;Samples;Min_cycle;Max_cycle;Signal;HPM_P1;HPM_P2
2022/09/24 00:01:18;;;;;;;51.22;32.05;;;;;;;22.17;52.82;101318.91;4976804;28;20392;-74
2022/09/24 00:03:51;;;;;;;44.47;34.00;;;;;;;22.03;53.21;101320.69;4976852;28;20046;-73
2022/09/24 00:06:18;;;;;;;42.33;32.05;;;;;;;21.91;54.02;101323.00;4976664;28;20039;-73
2022/09/24 00:08:44;;;;;;;45.58;31.45;;;;;;;22.01;53.29;101317.44;4977056;28;20075;-74
2022/09/24 00:11:11;;;;;;;45.17;32.85;;;;;;;21.81;54.28;101322.00;4976750;28;20035;-73
2022/09/24 00:13:37;;;;;;;47.47;32.25;;;;;;;22.05;53.12;101318.50;4977501;28;20515;-74
2022/09/24 00:16:06;;;;;;;48.33;33.13;;;;;;;22.07;53.29;101319.03;4976746;28;20402;-72
2022/09/24 00:18:32;;;;;;;44.55;32.35;;;;;;;22.06;53.21;101323.66;4976224;28;20392;-74
2022/09/24 00:20:58;;;;;;;44.85;33.22;;;;;;;22.06;53.08;101314.63;4976539;28;20035;-73
2022/09/24 00:23:23;;;;;;;50.05;34.63;;;;;;;22.12;52.92;101318.94;4976322;28;20046;-73
2022/09/24 00:28:32;;;;;;;47.13;31.73;;;;;;;22.21;52.81;101312.53;4976465;28;20105;-73
2022/09/24 00:31:02;;;;;;;47.08;32.95;;;;;;;22.17;52.67;101311.50;4976468;28;20039;-72
2022/09/24 00:33:28;;;;;;;42.20;30.77;;;;;;;22.11;52.72;101301.69;5007240;28;20042;-74
2022/09/24 00:36:03;;;;;;;42.17;30.30;;;;;;;22.09;52.44;101305.84;4976188;28;20583;-75
2022/09/24 00:38:32;;;;;;;46.65;32.83;;;;;;;21.99;53.01;101309.53;4975957;28;20062;-74
2022/09/24 00:40:58;;;;;;;48.83;32.75;;;;;;;22.03;53.32;101304.28;4976627;28;20089;-74
2022/09/24 00:43:35;;;;;;;45.45;31.02;;;;;;;21.94;53.20;101306.00;4976215;28;20039;-74
2022/09/24 00:46:36;;;;;;;45.85;33.97;;;;;;;22.03;53.12;101296.88;4976209;28;20117;-75
2022/09/24 00:49:13;;;;;;;47.92;33.38;;;;;;;21.83;53.62;101303.38;4976193;28;20042;-73
2022/09/24 00:51:41;;;;;;;47.53;32.80;;;;;;;21.87;53.71;101291.84;4976114;28;20386;-74
2022/09/24 00:54:28;;;;;;;47.40;32.47;;;;;;;21.93;53.56;101288.78;4975819;28;20138;-74
2022/09/24 00:56:56;;;;;;;50.78;32.58;;;;;;;21.90;53.63;101292.09;4975996;28;20042;-74
2022/09/24 00:59:23;;;;;;;42.85;32.00;;;;;;;21.88;52.81;101288.81;4990911;28;20045;-73
2022/09/24 01:01:50;;;;;;;41.35;31.80;;;;;;;21.91;53.35;101281.97;4976266;28;20111;-73
2022/09/24 01:04:21;;;;;;;45.17;32.65;;;;;;;21.94;53.17;101282.19;4975849;28;20031;-74
2022/09/24 01:06:46;;;;;;;;;;;;;;;21.91;53.28;101285.53;4976286;28;20097;-75
2022/09/24 01:09:12;;;;;;;46.17;33.80;;;;;;;22.01;53.12;101282.69;4975625;28;19918;-73
2022/09/24 01:12:11;;;;;;;48.83;34.42;;;;;;;21.84;53.17;101285.03;4975711;28;20039;-73
2022/09/24 01:15:02;;;;;;;46.35;33.63;;;;;;;21.87;53.40;101280.91;4975604;28;20043;-75
2022/09/24 01:18:01;;;;;;;46.00;33.67;;;;;;;21.86;53.57;101271.88;4921518;29;20041;-74
2022/09/24 01:20:56;;;;;;;41.38;31.50;;;;;;;21.55;54.97;101274.06;4915048;29;20044;-73
2022/09/24 01:23:24;;;;;;;48.92;33.40;;;;;;;21.50;55.00;101276.84;4915283;29;20660;-75
2022/09/24 01:26:07;;;;;;;50.03;35.38;;;;;;;21.67;54.30;101285.44;4915410;29;20044;-73
2022/09/24 01:28:58;;;;;;;47.65;34.08;;;;;;;21.82;53.39;101279.03;4915354;29;20047;-75
2022/09/24 01:31:40;;;;;;;49.78;35.45;;;;;;;21.88;53.02;101266.13;4915218;29;20126;-75
2022/09/24 01:34:08;;;;;;;45.45;35.35;;;;;;;22.00;53.64;101269.25;4915162;29;20036;-74
2022/09/24 01:36:37;;;;;;;49.10;35.97;;;;;;;21.84;53.93;101263.97;4915052;29;20055;-73
2022/09/24 01:39:05;;;;;;;51.97;34.85;;;;;;;21.95;53.46;101258.38;4914797;29;20048;-73
2022/09/24 01:41:33;;;;;;;54.20;37.03;;;;;;;21.93;54.01;101271.53;4914296;29;20408;-73
2022/09/24 01:43:59;;;;;;;48.15;35.88;;;;;;;21.90;53.24;101264.72;4915640;29;20188;-75
2022/09/24 01:46:25;;;;;;;51.10;36.97;;;;;;;21.95;53.98;101261.94;4914787;29;20096;-74
2022/09/24 01:48:50;;;;;;;48.67;36.95;;;;;;;21.93;54.09;101247.72;4914957;29;20052;-73
2022/09/24 01:51:27;;;;;;;49.58;36.22;;;;;;;21.91;53.55;101252.69;4915176;29;20044;-74
2022/09/24 01:54:02;;;;;;;52.03;36.10;;;;;;;22.02;53.21;101254.19;4919789;29;20036;-74
2022/09/24 01:56:45;;;;;;;45.08;34.90;;;;;;;21.78;54.79;101253.31;4938717;28;20058;-74
2022/09/24 01:59:18;;;;;;;46.40;35.47;;;;;;;22.06;53.24;101244.28;4975463;28;20039;-75
2022/09/24 02:01:55;;;;;;;50.17;38.65;;;;;;;21.89;54.11;101243.94;4975504;28;20038;-73
2022/09/24 02:04:24;;;;;;;54.05;36.45;;;;;;;21.88;53.83;101239.56;4993775;28;20030;-73
2022/09/24 02:06:57;;;;;;;55.22;40.15;;;;;;;21.96;53.72;101235.38;4992703;28;20108;-74
2022/09/24 02:09:43;;;;;;;48.92;36.40;;;;;;;21.95;53.59;101239.22;4993930;28;20026;-74
2022/09/24 02:12:13;;;;;;;52.70;39.63;;;;;;;22.05;53.73;101239.13;4993794;28;20379;-73
2022/09/24 02:14:45;;;;;;;49.22;37.35;;;;;;;22.00;53.16;101236.41;4977377;28;20035;-74
2022/09/24 02:17:13;;;;;;;56.55;37.80;;;;;;;22.06;53.65;101235.25;4986522;28;20492;-73
2022/09/24 02:19:41;;;;;;;53.25;38.88;;;;;;;22.02;53.53;101226.00;4974979;28;20035;-73
2022/09/24 02:22:09;;;;;;;46.65;36.65;;;;;;;21.93;53.21;101227.75;4973622;28;20046;-74
2022/09/24 02:24:37;;;;;;;49.88;36.83;;;;;;;21.91;54.09;101225.31;4974245;28;20034;-74
2022/09/24 02:27:03;;;;;;;52.97;37.63;;;;;;;21.91;53.86;101229.97;4974231;28;20088;-73
2022/09/24 02:29:29;;;;;;;56.30;39.75;;;;;;;21.91;53.79;101222.56;4974319;28;20434;-74
2022/09/24 02:31:56;;;;;;;52.83;37.78;;;;;;;21.88;53.44;101217.66;4974498;28;20022;-74
2022/09/24 02:34:40;;;;;;;54.58;36.83;;;;;;;21.84;53.77;101213.88;4974323;28;20122;-73
2022/09/24 02:37:11;;;;;;;52.58;38.55;;;;;;;21.80;54.36;101219.13;4974163;28;20035;-74
2022/09/24 02:39:36;;;;;;;;;;;;;;;21.85;54.09;101212.78;4974405;28;20480;-74
2022/09/24 02:42:06;;;;;;;49.25;38.50;;;;;;;21.76;54.44;101222.69;4974100;28;19994;-75
2022/09/24 02:44:32;;;;;;;48.05;37.20;;;;;;;21.81;54.25;101217.22;4973957;28;20039;-74
2022/09/24 02:46:58;;;;;;;51.55;38.15;;;;;;;21.79;53.95;101219.41;4974446;28;20070;-74
2022/09/24 02:49:23;;;;;;;50.05;37.70;;;;;;;21.78;54.16;101209.53;4974024;28;20082;-74
2022/09/24 02:51:49;;;;;;;47.78;37.40;;;;;;;21.64;55.06;101212.16;4973763;28;20035;-75
2022/09/24 02:54:14;;;;;;;49.85;36.80;;;;;;;21.63;54.99;101206.97;4971954;28;20102;-72
2022/09/24 02:56:40;;;;;;;51.20;37.55;;;;;;;21.72;54.92;101208.78;4973887;28;20031;-73
2022/09/24 02:59:06;;;;;;;47.42;35.58;;;;;;;21.66;55.22;101207.22;4973741;28;20031;-74
2022/09/24 03:01:33;;;;;;;49.80;35.72;;;;;;;21.71;54.80;101203.59;4988971;28;20075;-74
2022/09/24 03:03:58;;;;;;;51.88;37.53;;;;;;;21.49;55.84;101206.84;4989548;28;20046;-75
2022/09/24 03:06:24;;;;;;;48.85;34.70;;;;;;;21.60;54.51;101205.63;4992908;28;20060;-74
2022/09/24 03:08:50;;;;;;;48.92;37.35;;;;;;;21.35;55.94;101203.16;4992752;28;20040;-74
2022/09/24 03:11:15;;;;;;;48.28;36.22;;;;;;;21.47;55.68;101208.22;4992793;28;20117;-74
2022/09/24 03:13:41;;;;;;;48.00;38.22;;;;;;;21.58;55.01;101210.56;4993523;28;20025;-73
2022/09/24 03:16:07;;;;;;;47.00;36.88;;;;;;;21.57;55.67;101205.41;4992686;28;20057;-73
2022/09/24 03:18:33;;;;;;;49.53;37.03;;;;;;;21.38;56.50;101208.06;4973336;28;20065;-74
2022/09/24 03:21:02;;;;;;;44.17;34.92;;;;;;;21.26;56.77;101212.25;4973410;28;20055;-75
2022/09/24 03:23:27;;;;;;;49.47;37.25;;;;;;;20.83;58.36;101213.94;4973406;28;20079;-76
2022/09/24 03:25:54;;;;;;;48.30;38.03;;;;;;;21.52;55.54;101206.25;4988664;28;20058;-74
2022/09/24 03:28:20;;;;;;;47.58;36.42;;;;;;;21.44;55.82;101209.63;4973147;28;20039;-74
2022/09/24 03:31:01;;;;;;;46.47;36.72;;;;;;;21.58;55.52;101202.38;4973248;28;20391;-74
2022/09/24 03:33:31;;;;;;;49.15;37.72;;;;;;;21.75;55.22;101210.13;4972569;28;20510;-74
2022/09/24 03:36:02;;;;;;;51.50;36.58;;;;;;;21.60;55.28;101200.16;4968608;28;20043;-74
2022/09/24 03:38:29;;;;;;;45.75;35.58;;;;;;;21.69;55.03;101206.63;4957536;28;20372;-73
2022/09/24 03:40:55;;;;;;;45.92;34.40;;;;;;;21.65;55.33;101210.25;4973541;28;20139;-73
2022/09/24 03:43:21;;;;;;;43.05;33.47;;;;;;;21.58;55.35;101212.50;4968782;28;20043;-74
2022/09/24 03:45:48;;;;;;;43.53;34.72;;;;;;;21.50;56.08;101204.94;4967903;28;20104;-74
2022/09/24 03:48:14;;;;;;;44.45;34.15;;;;;;;21.54;55.75;101208.72;4972987;28;20133;-75
2022/09/24 03:50:39;;;;;;;47.50;34.30;;;;;;;21.42;56.61;101208.28;4972880;28;20092;-75
2022/09/24 03:53:05;;;;;;;43.97;33.55;;;;;;;21.71;55.49;101204.44;4973167;28;20031;-74
2022/09/24 03:55:30;;;;;;;41.47;33.15;;;;;;;21.68;55.25;101206.91;4973591;28;20038;-73
2022/09/24 03:57:56;;;;;;;42.42;31.00;;;;;;;21.82;54.85;101203.22;4973012;28;20049;-72
2022/09/24 04:00:22;;;;;;;43.95;34.67;;;;;;;21.85;55.03;101201.84;4972802;28;20043;-74
2022/09/24 04:02:50;;;;;;;45.55;32.83;;;;;;;21.60;55.75;101204.84;4978285;28;20050;-72
2022/09/24 04:05:16;;;;;;;44.13;31.63;;;;;;;21.77;55.15;101206.00;4960418;28;20046;-73
2022/09/24 04:07:42;;;;;;;42.30;31.60;;;;;;;21.77;55.03;101207.91;4993030;28;20035;-74
2022/09/24 04:10:08;;;;;;;40.45;31.25;;;;;;;21.71;55.79;101203.59;4964921;28;20039;-73
2022/09/24 04:12:34;;;;;;;40.33;31.13;;;;;;;21.75;55.42;101205.47;4965581;28;20027;-73
2022/09/24 04:15:01;;;;;;;45.10;32.33;;;;;;;21.55;56.03;101197.47;4972643;28;20042;-74
2022/09/24 04:17:30;;;;;;;40.05;32.03;;;;;;;21.66;55.94;101206.41;4981778;28;20201;-74
2022/09/24 04:19:56;;;;;;;40.00;31.42;;;;;;;21.64;55.32;101198.47;4973211;28;20042;-75
2022/09/24 04:22:22;;;;;;;39.92;31.35;;;;;;;21.80;55.04;101197.22;4987919;28;20526;-74
2022/09/24 04:24:47;;;;;;;38.50;29.95;;;;;;;21.66;55.55;101198.22;4972496;28;20047;-75
2022/09/24 04:27:12;;;;;;;37.00;31.65;;;;;;;21.61;56.31;101198.25;4972567;28;20082;-75
2022/09/24 04:29:38;;;;;;;37.13;30.70;;;;;;;21.67;55.30;101197.09;4977614;28;20082;-73
2022/09/24 04:32:03;;;;;;;38.05;29.58;;;;;;;21.10;57.95;101192.44;4992208;28;20023;-73
2022/09/24 04:34:28;;;;;;;39.17;30.50;;;;;;;21.37;56.67;101187.25;4992661;28;20101;-75
2022/09/24 04:36:54;;;;;;;39.22;29.73;;;;;;;21.46;56.32;101182.78;4992011;28;20050;-74
2022/09/24 04:39:25;;;;;;;37.53;29.15;;;;;;;21.66;55.36;101188.06;4991887;28;20061;-74
2022/09/24 04:41:50;;;;;;;39.00;28.45;;;;;;;21.68;55.76;101183.09;4992088;28;20030;-73
2022/09/24 04:44:16;;;;;;;39.22;30.23;;;;;;;21.55;55.80;101188.47;4993106;28;20046;-73
2022/09/24 04:46:41;;;;;;;39.03;29.58;;;;;;;21.61;56.21;101190.84;4996069;28;20045;-73
2022/09/24 04:49:08;;;;;;;39.30;29.45;;;;;;;21.68;55.42;101193.22;4995509;28;20033;-73
2022/09/24 04:51:34;;;;;;;38.80;30.58;;;;;;;21.60;55.50;101191.94;4995590;28;20034;-73
2022/09/24 04:54:04;;;;;;;41.88;30.27;;;;;;;21.68;55.49;101193.22;4995158;28;20556;-73
2022/09/24 04:56:30;;;;;;;40.03;30.80;;;;;;;21.54;56.18;101201.31;4995310;28;20045;-71
2022/09/24 04:58:56;;;;;;;41.63;29.17;;;;;;;21.55;55.95;101196.66;4995409;28;20445;-73
2022/09/24 05:01:22;;;;;;;38.85;30.42;;;;;;;21.53;56.00;101193.41;4993401;28;20064;-73
2022/09/24 05:03:48;;;;;;;41.13;30.30;;;;;;;21.42;56.56;101200.91;4975617;28;20427;-73
2022/09/24 05:06:14;;;;;;;43.10;31.85;;;;;;;21.41;56.72;101199.25;4975663;28;20166;-74
2022/09/24 05:08:39;;;;;;;39.65;30.38;;;;;;;21.42;56.63;101205.56;4975461;28;20482;-73
2022/09/24 05:11:04;;;;;;;44.33;31.17;;;;;;;21.22;56.89;101200.25;4975284;28;20035;-74
2022/09/24 05:13:30;;;;;;;41.92;29.88;;;;;;;21.47;56.20;101209.03;4975796;28;20598;-73
2022/09/24 05:15:55;;;;;;;43.45;33.53;;;;;;;21.33;56.90;101213.56;4975401;28;20030;-72
2022/09/24 05:18:21;;;;;;;49.67;33.47;;;;;;;21.38;57.06;101213.53;4974991;28;20105;-73
2022/09/24 05:20:46;;;;;;;45.88;31.50;;;;;;;21.34;56.80;101215.19;4975386;28;20042;-73
2022/09/24 05:23:11;;;;;;;47.45;32.75;;;;;;;21.37;56.51;101211.06;4975449;28;20023;-73
2022/09/24 05:27:07;;;;;;;47.85;33.15;;;;;;;21.21;56.24;101204.91;4975620;28;20053;-73
2022/09/24 05:28:23;;;;;;;46.10;32.42;;;;;;;20.81;58.35;101211.47;4975104;28;20034;-73
2022/09/24 05:30:48;;;;;;;46.28;31.05;;;;;;;21.07;57.62;101208.59;4989613;28;20515;-73
2022/09/24 05:33:14;;;;;;;44.10;30.77;;;;;;;21.15;57.46;101208.00;4994745;28;20491;-73
2022/09/24 05:35:39;;;;;;;48.33;33.10;;;;;;;21.26;57.13;101204.88;4994416;28;20509;-72
2022/09/24 05:38:05;;;;;;;43.42;30.42;;;;;;;21.21;56.43;101209.59;4994282;28;20030;-72
2022/09/24 05:40:48;;;;;;;44.92;29.73;;;;;;;21.10;57.51;101214.31;4994671;28;20080;-72
2022/09/24 05:43:15;;;;;;;48.10;30.73;;;;;;;21.15;57.14;101216.19;4994525;28;20034;-72
2022/09/24 05:45:41;;;;;;;52.78;34.70;;;;;;;20.99;57.72;101210.00;4994172;28;20042;-72
2022/09/24 05:48:06;;;;;;;51.63;33.30;;;;;;;21.15;57.20;101216.97;4994336;28;20390;-71
2022/09/24 05:50:33;;;;;;;52.15;32.42;;;;;;;21.18;56.91;101210.97;4994445;28;20054;-73
2022/09/24 05:53:02;;;;;;;51.22;33.97;;;;;;;21.18;57.31;101212.88;4994570;28;20082;-72
2022/09/24 05:55:28;;;;;;;51.50;32.63;;;;;;;21.19;56.49;101215.31;5009361;28;20078;-72
2022/09/24 05:57:54;;;;;;;54.28;34.95;;;;;;;21.26;56.69;101207.63;4989305;28;20037;-73
2022/09/24 06:00:19;;;;;;;52.00;35.00;;;;;;;21.00;56.95;101212.44;4973704;28;20053;-72
2022/09/24 06:02:44;;;;;;;53.60;36.08;;;;;;;21.11;57.67;101221.38;4974143;28;20073;-73
2022/09/24 06:05:11;;;;;;;53.15;36.10;;;;;;;21.15;57.33;101218.94;4988440;28;20050;-72
2022/09/24 06:07:36;;;;;;;53.13;35.72;;;;;;;21.33;56.50;101223.66;5005230;28;20466;-73
2022/09/24 06:10:02;;;;;;;56.25;38.92;;;;;;;21.10;57.68;101227.16;4973537;28;20030;-72
2022/09/24 06:12:27;;;;;;;62.15;39.47;;;;;;;21.20;57.22;101222.44;4973967;28;20059;-73
2022/09/24 06:14:53;;;;;;;59.53;40.00;;;;;;;21.24;56.62;101219.94;4973270;28;20023;-71
2022/09/24 06:17:19;;;;;;;62.42;41.15;;;;;;;20.99;57.83;101220.94;4973203;28;20097;-73
2022/09/24 06:19:46;;;;;;;68.25;42.85;;;;;;;21.18;57.13;101223.81;4973940;28;20468;-73
2022/09/24 06:22:12;;;;;;;63.78;43.08;;;;;;;21.25;56.55;101222.38;4973339;28;20085;-72
2022/09/24 06:24:38;;;;;;;62.20;42.28;;;;;;;21.25;56.82;101235.22;4974119;28;20630;-70
2022/09/24 06:27:03;;;;;;;70.10;44.88;;;;;;;20.94;57.58;101231.88;4974129;28;20035;-71
2022/09/24 06:29:29;;;;;;;64.75;44.13;;;;;;;20.89;57.81;101235.44;4977786;28;20061;-70
2022/09/24 06:31:54;;;;;;;66.35;43.50;;;;;;;20.82;57.90;101245.91;4976929;28;20089;-70
2022/09/24 06:34:20;;;;;;;67.45;43.25;;;;;;;21.03;57.76;101238.41;4991800;28;20034;-70
2022/09/24 06:36:45;;;;;;;63.40;41.78;;;;;;;21.09;57.53;101240.00;4972765;28;20388;-70
2022/09/24 06:39:10;;;;;;;68.90;42.42;;;;;;;20.93;57.81;101238.47;4972886;28;20074;-70
2022/09/24 06:41:36;;;;;;;66.68;42.70;;;;;;;21.21;57.24;101248.66;4972552;28;20031;-70
2022/09/24 06:44:01;;;;;;;64.15;42.03;;;;;;;21.09;57.70;101242.72;4972714;28;20037;-70
2022/09/24 06:46:27;;;;;;;68.38;43.30;;;;;;;21.10;57.19;101257.22;4972935;28;20034;-71
2022/09/24 06:48:55;;;;;;;59.38;39.40;;;;;;;21.20;57.41;101254.41;4972434;28;20035;-70
2022/09/24 06:51:21;;;;;;;62.10;42.92;;;;;;;21.36;56.96;101255.91;4972639;28;20047;-70
2022/09/24 06:53:50;;;;;;;62.78;40.72;;;;;;;21.21;57.07;101258.78;4972240;28;20035;-70
2022/09/24 06:56:15;;;;;;;60.15;40.88;;;;;;;21.44;56.89;101258.03;4972359;28;20034;-70
2022/09/24 06:58:41;;;;;;;57.80;38.65;;;;;;;21.44;56.43;101261.59;4972922;28;20491;-69
2022/09/24 07:01:07;;;;;;;66.13;39.28;;;;;;;21.46;56.34;101266.78;4971782;28;20054;-70
2022/09/24 07:03:33;;;;;;;56.25;39.35;;;;;;;21.44;56.60;101264.34;4977289;28;20038;-70
2022/09/24 07:06:02;;;;;;;57.55;40.08;;;;;;;21.46;56.49;101266.78;4978528;28;20034;-70
2022/09/24 07:08:27;;;;;;;55.40;39.20;;;;;;;21.53;56.58;101257.13;4977975;28;20039;-70
2022/09/24 07:10:53;;;;;;;53.70;37.40;;;;;;;21.50;56.33;101270.56;4978519;28;20033;-69
2022/09/24 07:13:20;;;;;;;52.60;37.88;;;;;;;21.57;55.99;101268.31;4979166;28;20030;-70
2022/09/24 07:15:46;;;;;;;53.83;36.35;;;;;;;21.57;56.25;101271.84;4978240;28;20112;-70
2022/09/24 07:18:12;;;;;;;50.92;37.13;;;;;;;21.54;55.92;101277.88;4977395;28;20046;-69
2022/09/24 07:20:38;;;;;;;54.17;37.70;;;;;;;21.48;56.51;101276.28;4977908;28;20034;-70
2022/09/24 07:23:08;;;;;;;49.28;36.10;;;;;;;21.65;56.32;101278.63;4974978;28;20639;-68
2022/09/24 07:25:35;;;;;;;51.90;35.50;;;;;;;21.62;55.98;101280.00;4973661;28;20027;-70
2022/09/24 07:28:02;;;;;;;54.70;35.33;;;;;;;21.59;56.18;101280.59;4972828;28;20050;-69
2022/09/24 07:30:28;;;;;;;52.05;36.58;;;;;;;21.65;56.11;101284.09;4972925;28;20041;-70
2022/09/24 07:32:55;;;;;;;47.92;35.22;;;;;;;21.66;56.27;101283.00;4972792;28;20487;-71
2022/09/24 07:35:20;;;;;;;46.45;33.28;;;;;;;21.63;55.82;101291.78;4971684;28;20471;-70
2022/09/24 07:37:45;;;;;;;52.75;37.63;;;;;;;21.68;55.73;101291.72;4972473;28;20035;-71
2022/09/24 07:40:11;;;;;;;46.10;33.92;;;;;;;21.69;55.92;101285.16;4972699;28;20031;-71
2022/09/24 07:42:37;;;;;;;42.90;31.30;;;;;;;21.80;55.44;101292.16;4972906;28;20046;-71
2022/09/24 07:45:03;;;;;;;43.20;31.23;;;;;;;21.81;55.04;101289.19;4972868;28;20122;-71
2022/09/24 07:47:29;;;;;;;41.15;31.92;;;;;;;21.91;55.39;101291.00;4972945;28;20125;-72
2022/09/24 07:49:54;;;;;;;42.30;31.33;;;;;;;21.88;55.18;101298.97;4973291;28;20035;-72
2022/09/24 07:52:19;;;;;;;40.15;30.73;;;;;;;21.93;55.35;101299.72;4972943;28;20041;-71
2022/09/24 07:54:45;;;;;;;41.30;31.42;;;;;;;21.95;54.88;101302.16;4981345;28;20065;-72
2022/09/24 07:57:12;;;;;;;39.05;30.05;;;;;;;21.72;55.64;101301.81;4976286;28;20035;-72
2022/09/24 07:59:38;;;;;;;41.67;30.83;;;;;;;21.77;55.42;101306.41;4971377;28;20039;-70
2022/09/24 08:02:08;;;;;;;38.67;30.23;;;;;;;21.78;55.33;101310.78;4969230;28;20023;-70
2022/09/24 08:04:33;;;;;;;35.80;27.10;;;;;;;21.79;54.79;101315.16;5008718;28;20073;-70
2022/09/24 08:06:59;;;;;;;37.75;28.05;;;;;;;21.92;54.90;101308.22;4979958;28;20483;-71
2022/09/24 08:09:25;;;;;;;35.17;28.55;;;;;;;21.86;55.04;101307.44;4974101;28;20041;-69
2022/09/24 08:11:50;;;;;;;35.63;26.13;;;;;;;21.89;54.99;101315.09;4986400;28;20034;-69
2022/09/24 08:14:16;;;;;;;33.65;25.10;;;;;;;21.95;54.84;101313.94;4971397;28;20050;-69
2022/09/24 08:16:41;;;;;;;35.70;25.25;;;;;;;21.85;54.95;101314.03;4971479;28;20039;-69
2022/09/24 08:19:13;;;;;;;33.15;25.63;;;;;;;21.86;55.21;101306.66;4980460;28;20030;-70
2022/09/24 08:21:38;;;;;;;35.50;26.27;;;;;;;21.85;54.92;101322.25;4985118;28;20154;-70
2022/09/24 08:24:04;;;;;;;35.90;26.17;;;;;;;21.98;55.06;101315.25;4981779;28;20230;-70
2022/09/24 08:26:29;;;;;;;29.55;24.73;;;;;;;21.97;54.42;101322.69;4975138;28;20555;-70
2022/09/24 08:28:55;;;;;;;36.33;25.90;;;;;;;22.09;54.72;101322.28;4975631;28;20042;-70
2022/09/24 08:31:20;;;;;;;36.67;27.60;;;;;;;22.13;54.50;101323.34;4974311;28;20034;-69
2022/09/24 08:33:49;;;;;;;36.60;26.27;;;;;;;22.02;54.56;101324.53;4975183;28;20418;-69
2022/09/24 08:36:15;;;;;;;35.92;25.20;;;;;;;22.04;54.63;101330.53;4975506;28;20038;-69
2022/09/24 08:38:40;;;;;;;33.97;24.80;;;;;;;22.16;54.59;101331.78;4977376;28;20065;-70
2022/09/24 08:41:12;;;;;;;33.25;25.70;;;;;;;22.10;55.05;101324.72;4975058;28;20586;-69
2022/09/24 08:44:03;;;;;;;35.72;26.10;;;;;;;22.15;55.16;101326.59;4975426;28;20448;-70
2022/09/24 08:49:28;;;;;;;37.17;25.88;;;;;;;21.95;55.41;101335.00;4972548;28;20113;-70
2022/09/24 08:52:00;;;;;;;35.05;24.77;;;;;;;22.08;55.50;101335.16;4973905;28;20031;-71
2022/09/24 08:54:28;;;;;;;33.70;25.52;;;;;;;22.06;55.59;101342.84;4973834;28;20118;-70
2022/09/24 08:56:56;;;;;;;31.63;24.80;;;;;;;22.08;55.01;101340.63;4975922;28;20052;-69
2022/09/24 08:59:27;;;;;;;30.90;24.95;;;;;;;22.24;55.09;101346.75;4977542;28;20043;-70
2022/09/24 09:02:12;;;;;;;27.17;20.40;;;;;;;22.25;54.78;101340.19;4979699;28;20092;-70
2022/09/24 09:05:08;;;;;;;25.35;20.10;;;;;;;22.33;55.13;101343.09;4978873;28;20045;-69
2022/09/24 09:07:45;;;;;;;28.48;21.70;;;;;;;22.35;55.19;101345.53;4978127;28;20043;-69
2022/09/24 09:10:17;;;;;;;27.15;21.00;;;;;;;22.22;54.64;101351.69;4978337;28;20042;-70
2022/09/24 09:12:52;;;;;;;26.35;20.70;;;;;;;22.34;54.91;101350.22;4993676;28;20410;-71
2022/09/24 09:15:22;;;;;;;29.73;20.27;;;;;;;21.91;56.22;101345.72;4985355;28;20109;-70
2022/09/24 09:18:01;;;;;;;23.60;18.98;;;;;;;22.41;54.76;101349.84;4988707;28;20402;-70
2022/09/24 09:20:48;;;;;;;26.15;19.55;;;;;;;22.64;53.98;101343.59;4992957;28;20050;-70
2022/09/24 09:23:27;;;;;;;22.45;18.73;;;;;;;22.53;53.95;101347.50;4979235;28;20027;-70
2022/09/24 09:25:58;;;;;;;24.40;18.58;;;;;;;22.66;54.10;101349.59;4987443;28;20037;-70
2022/09/24 09:28:25;;;;;;;22.20;18.92;;;;;;;22.24;54.95;101354.97;4988067;28;20033;-71
2022/09/24 09:31:12;;;;;;;23.33;19.35;;;;;;;22.73;54.13;101350.03;4981928;28;20045;-72
2022/09/24 09:34:08;;;;;;;21.35;16.55;;;;;;;22.83;54.43;101357.31;4978007;28;20519;-73
2022/09/24 09:36:34;;;;;;;21.10;17.55;;;;;;;22.45;54.63;101361.84;4974105;28;20047;-72
2022/09/24 09:39:18;;;;;;;22.50;17.60;;;;;;;22.51;54.35;101357.94;4991422;28;20165;-71
2022/09/24 09:41:49;;;;;;;22.92;18.10;;;;;;;22.78;54.02;101357.38;4977797;28;20380;-70
2022/09/24 09:44:25;;;;;;;23.98;17.52;;;;;;;22.93;53.79;101362.66;4979104;28;20449;-71
2022/09/24 09:47:11;;;;;;;26.60;18.88;;;;;;;23.12;53.60;101367.06;4978430;28;20026;-71
2022/09/24 09:49:38;;;;;;;17.95;15.50;;;;;;;23.01;53.83;101367.50;4977484;28;20573;-71
2022/09/24 09:52:19;;;;;;;21.63;15.65;;;;;;;23.10;53.43;101366.53;4979275;28;20053;-72
2022/09/24 09:54:45;;;;;;;20.58;16.42;;;;;;;23.17;53.65;101379.88;4983658;28;20042;-71
2022/09/24 09:57:17;;;;;;;20.58;16.00;;;;;;;23.14;53.70;101377.72;4980181;28;20050;-72
2022/09/24 09:59:49;;;;;;;22.13;16.00;;;;;;;23.17;53.54;101372.47;4978628;28;20042;-72
2022/09/24 10:02:25;;;;;;;23.23;14.52;;;;;;;23.24;53.35;101372.09;4994601;28;20046;-72
2022/09/24 10:04:56;;;;;;;16.75;13.27;;;;;;;23.23;53.34;101365.78;4982261;28;20045;-73
2022/09/24 10:07:22;;;;;;;19.13;13.35;;;;;;;23.12;53.10;101368.97;4979599;28;20026;-72
2022/09/24 10:10:01;;;;;;;16.17;12.55;;;;;;;23.22;53.41;101366.09;4980259;28;20502;-71
2022/09/24 10:12:27;;;;;;;17.75;13.75;;;;;;;23.21;53.53;101376.22;4983967;28;20069;-72
2022/09/24 10:14:57;;;;;;;17.77;13.48;;;;;;;23.09;54.09;101364.91;4982466;28;20077;-72
2022/09/24 10:17:28;;;;;;;18.75;12.27;;;;;;;23.20;53.67;101374.63;4983483;28;20061;-72
2022/09/24 10:19:54;;;;;;;17.45;12.18;;;;;;;23.14;53.46;101373.06;4982382;28;20043;-72
2022/09/24 10:22:25;;;;;;;15.18;11.70;;;;;;;23.07;54.15;101369.88;4979461;28;20049;-71
2022/09/24 10:24:53;;;;;;;17.83;12.38;;;;;;;23.08;53.44;101365.19;4984809;28;20042;-71
2022/09/24 10:27:36;;;;;;;20.13;11.27;;;;;;;22.91;53.59;101367.63;4986150;28;20038;-71
2022/09/24 10:32:57;;;;;;;16.67;12.05;;;;;;;22.99;54.06;101365.06;4982004;28;20598;-71
2022/09/24 10:35:33;;;;;;;18.60;11.85;;;;;;;23.25;53.92;101368.25;4986967;28;20498;-71
2022/09/24 10:37:59;;;;;;;18.83;11.55;;;;;;;23.19;53.37;101367.50;4980158;28;20446;-72
2022/09/24 10:40:29;;;;;;;21.05;12.75;;;;;;;23.15;53.59;101371.97;4978614;28;20035;-72
2022/09/24 10:43:03;;;;;;;24.23;12.65;;;;;;;23.29;53.09;101366.56;4978100;28;20066;-71
2022/09/24 10:46:03;;;;;;;21.05;12.05;;;;;;;23.18;53.67;101365.88;4984088;28;20066;-71
2022/09/24 10:48:43;;;;;;;13.70;11.20;;;;;;;23.37;52.83;101372.19;4925832;29;20055;-69
2022/09/24 10:51:33;;;;;;;19.05;12.45;;;;;;;23.28;53.52;101373.97;4913635;29;20059;-71
2022/09/24 10:54:05;;;;;;;18.20;11.68;;;;;;;23.16;53.71;101376.31;4913877;29;20048;-70
2022/09/24 10:56:50;;;;;;;21.85;11.48;;;;;;;22.89;53.85;101381.63;4950417;28;20035;-71
2022/09/24 10:59:52;;;;;;;21.63;11.75;;;;;;;22.70;54.69;101369.81;4970702;28;20105;-69
2022/09/24 11:02:39;;;;;;;11.65;4.63;;;;;;;22.14;55.05;101383.28;4970954;28;20084;-70
2022/09/24 11:05:57;;;;;;;11.63;6.18;;;;;;;21.88;56.71;101390.06;4955280;28;20058;-69
2022/09/24 11:08:49;;;;;;;14.30;6.50;;;;;;;21.93;56.56;101386.47;4932384;29;20094;-71
2022/09/24 11:11:15;;;;;;;15.43;6.03;;;;;;;22.25;55.24;101384.00;4932168;29;20119;-71
2022/09/24 11:14:08;;;;;;;18.02;6.53;;;;;;;22.53;55.11;101385.88;4932272;29;20127;-71
2022/09/24 11:16:42;;;;;;;20.70;8.18;;;;;;;22.64;54.77;101384.69;4932100;29;20047;-69
2022/09/24 11:19:32;;;;;;;16.00;9.02;;;;;;;22.76;54.62;101384.28;4931923;29;20401;-70
2022/09/24 11:22:16;;;;;;;17.37;7.77;;;;;;;22.65;54.40;101389.88;4930849;29;20063;-70
2022/09/24 11:25:18;;;;;;;20.52;5.10;;;;;;;22.70;54.76;101378.03;4935673;28;20619;-69
2022/09/24 11:27:43;;;;;;;;;;;;;;;22.72;54.97;101384.03;4903871;29;20044;-71
2022/09/24 11:30:11;;;;;;;12.87;4.40;;;;;;;22.72;54.27;101380.47;4903612;29;19919;-70
2022/09/24 11:32:53;;;;;;;13.93;4.20;;;;;;;22.37;55.69;101379.75;4902622;29;21045;-71